Time;durP1;ratioP1;P1;durP2;ratioP2;P2;SDS_P1;SDS_P2;PMS_P1;PMS_P2;Temp;Humidity;BMP_temperature;BMP_pressure;BME280_temperature;BME280_humidity;BME280_pressure;Samples;Min_cycle;Max_cycle;Signal;HPM_P1;HPM_P2
2022/08/08 00:01:05;;;;;;;;;;;25.80;48.30;;;;;;4867131;29;19959;-76
2022/08/08 00:03:44;;;;;;;;;;;25.80;48.50;;;;;;4880016;29;20315;-75
2022/08/08 00:06:13;;;;;;;;;;;25.70;48.50;;;;;;4880211;29;20384;-73
2022/08/08 00:08:50;;;;;;;;;;;25.70;48.50;;;;;;4880020;29;20348;-73
2022/08/08 00:11:33;;;;;;;;;;;25.70;48.80;;;;;;4878644;29;19957;-70
2022/08/08 00:14:06;;;;;;;;;;;25.70;48.60;;;;;;4879738;29;19964;-73
2022/08/08 00:16:44;;;;;;;;;;;25.70;48.70;;;;;;4879952;29;19974;-73
2022/08/08 00:19:33;;;;;;;;;;;25.70;48.70;;;;;;4878476;29;19912;-73
2022/08/08 00:22:04;;;;;;;;;;;25.70;48.70;;;;;;4879549;29;19919;-75
2022/08/08 00:24:35;;;;;;;;;;;25.70;48.50;;;;;;4879631;29;19922;-75
2022/08/08 00:27:06;;;;;;;;;;;25.70;48.80;;;;;;4867303;29;19964;-73
2022/08/08 00:29:35;;;;;;;;;;;25.80;48.80;;;;;;4879577;29;19921;-73
2022/08/08 00:32:08;;;;;;;;;;;25.70;48.90;;;;;;4879632;29;19963;-74
2022/08/08 00:35:14;;;;;;;;;;;25.70;49.00;;;;;;4879542;29;19912;-74
2022/08/08 00:37:45;;;;;;;;;;;25.60;49.10;;;;;;4879547;29;19947;-75
2022/08/08 00:40:23;;;;;;;;;;;25.70;48.90;;;;;;4879398;29;19923;-73
2022/08/08 00:43:22;;;;;;;;;;;25.50;49.90;;;;;;4879215;29;20416;-73
2022/08/08 00:46:02;;;;;;;;;;;25.50;49.40;;;;;;4879317;29;19966;-75
2022/08/08 00:48:33;;;;;;;;;;;25.70;49.20;;;;;;4879058;29;19911;-74
2022/08/08 00:51:02;;;;;;;;;;;25.80;49.10;;;;;;4879115;29;19923;-73
2022/08/08 00:53:27;;;;;;;;;;;25.70;49.00;;;;;;4879000;29;20365;-74
2022/08/08 00:56:08;;;;;;;;;;;25.60;49.00;;;;;;4878045;29;19915;-76
2022/08/08 00:58:39;;;;;;;;;;;25.60;49.30;;;;;;4864756;29;19912;-73
2022/08/08 01:01:25;;;;;;;;;;;25.60;49.40;;;;;;4866715;29;19990;-75
2022/08/08 01:04:03;;;;;;;;;;;25.50;49.20;;;;;;4878963;29;20006;-73
2022/08/08 01:06:45;;;;;;;;;;;25.60;49.20;;;;;;4878589;29;19911;-75
2022/08/08 01:09:29;;;;;;;;;;;25.60;49.10;;;;;;4878691;29;19915;-73
2022/08/08 01:12:05;;;;;;;;;;;25.70;48.80;;;;;;4878715;29;19916;-74
2022/08/08 01:14:39;;;;;;;;;;;25.70;48.80;;;;;;4878799;29;19918;-73
2022/08/08 01:17:17;;;;;;;;;;;25.60;48.90;;;;;;4878858;29;19976;-76
2022/08/08 01:19:48;;;;;;;;;;;25.40;49.40;;;;;;4878896;29;20001;-75
2022/08/08 01:22:16;;;;;;;;;;;25.50;49.30;;;;;;4878612;29;19912;-74
2022/08/08 01:24:54;;;;;;;;;;;25.50;49.20;;;;;;4878451;29;19947;-73
2022/08/08 01:27:43;;;;;;;;;;;25.50;49.20;;;;;;4865198;29;20385;-72
2022/08/08 01:30:20;;;;;;;;;;;25.40;49.50;;;;;;4878526;29;20451;-74
2022/08/08 01:33:04;;;;;;;;;;;25.40;49.60;;;;;;4878386;29;19920;-75
2022/08/08 01:35:36;;;;;;;;;;;25.40;49.40;;;;;;4878458;29;19991;-74
2022/08/08 01:38:20;;;;;;;;;;;25.40;49.40;;;;;;4878460;29;19948;-73
2022/08/08 01:41:00;;;;;;;;;;;25.40;49.30;;;;;;4878461;29;20010;-73
2022/08/08 01:43:44;;;;;;;;;;;25.40;49.40;;;;;;4878145;29;20453;-75
2022/08/08 01:46:22;;;;;;;;;;;25.30;49.60;;;;;;4878439;29;19919;-73
2022/08/08 01:48:56;;;;;;;;;;;25.30;49.60;;;;;;4878387;29;20031;-72
2022/08/08 01:51:22;;;;;;;;;;;25.30;50.30;;;;;;4878035;29;19934;-72
2022/08/08 01:54:03;;;;;;;;;;;25.30;49.60;;;;;;4878218;29;20382;-73
2022/08/08 01:56:37;;;;;;;;;;;25.30;49.70;;;;;;4878193;29;20309;-71
2022/08/08 01:59:31;;;;;;;;;;;25.20;49.80;;;;;;4878339;29;19912;-70
2022/08/08 02:01:57;;;;;;;;;;;25.30;49.90;;;;;;4878113;29;19919;-71
2022/08/08 02:04:35;;;;;;;;;;;25.30;49.80;;;;;;4878065;29;19912;-71
2022/08/08 02:07:07;;;;;;;;;;;25.30;49.80;;;;;;4878296;29;19923;-72
2022/08/08 02:09:51;;;;;;;;;;;25.30;49.70;;;;;;4878216;29;19920;-72
2022/08/08 02:12:37;;;;;;;;;;;25.30;49.80;;;;;;4876546;29;20365;-70
2022/08/08 02:15:08;;;;;;;;;;;25.30;49.70;;;;;;4877503;29;19915;-71
2022/08/08 02:17:39;;;;;;;;;;;25.20;49.90;;;;;;4878116;29;19959;-71
2022/08/08 02:20:07;;;;;;;;;;;25.20;50.10;;;;;;4881841;29;19966;-74
2022/08/08 02:22:39;;;;;;;;;;;25.20;50.10;;;;;;4881616;29;19958;-72
2022/08/08 02:25:10;;;;;;;;;;;25.10;50.10;;;;;;4880526;29;19916;-70
2022/08/08 02:27:41;;;;;;;;;;;25.20;50.10;;;;;;4866144;29;19922;-70
2022/08/08 02:30:09;;;;;;;;;;;25.30;50.00;;;;;;4881686;29;19931;-70
2022/08/08 02:32:41;;;;;;;;;;;25.20;50.00;;;;;;4880412;29;19912;-70
2022/08/08 02:35:06;;;;;;;;;;;25.10;50.30;;;;;;4869380;29;19919;-70
2022/08/08 02:37:38;;;;;;;;;;;25.00;50.60;;;;;;4881491;29;19912;-70
2022/08/08 02:40:10;;;;;;;;;;;25.10;50.50;;;;;;4881915;29;20268;-70
2022/08/08 02:42:54;;;;;;;;;;;25.10;50.40;;;;;;4881545;29;19920;-71
2022/08/08 02:45:43;;;;;;;;;;;25.10;50.50;;;;;;4880224;29;19912;-70
2022/08/08 02:48:24;;;;;;;;;;;25.10;50.50;;;;;;4880050;29;19967;-70
2022/08/08 02:50:58;;;;;;;;;;;25.10;50.60;;;;;;4881341;29;20431;-71
2022/08/08 02:53:24;;;;;;;;;;;25.10;50.60;;;;;;4881283;29;19912;-70
2022/08/08 02:56:00;;;;;;;;;;;25.00;50.60;;;;;;4881352;29;19923;-71
2022/08/08 02:58:34;;;;;;;;;;;25.00;50.70;;;;;;4871929;29;19920;-71
2022/08/08 03:01:00;;;;;;;;;;;25.10;50.60;;;;;;4868365;29;20596;-71
2022/08/08 03:03:44;;;;;;;;;;;25.00;50.70;;;;;;4881177;29;19958;-72
2022/08/08 03:06:26;;;;;;;;;;;25.10;50.70;;;;;;4881115;29;19923;-71
2022/08/08 03:08:52;;;;;;;;;;;25.10;50.70;;;;;;4881188;29;20035;-71
2022/08/08 03:11:36;;;;;;;;;;;25.10;50.80;;;;;;4881054;29;20359;-70
2022/08/08 03:14:07;;;;;;;;;;;25.00;50.90;;;;;;4880806;29;20010;-71
2022/08/08 03:16:46;;;;;;;;;;;25.00;51.00;;;;;;4881127;29;19911;-71
2022/08/08 03:19:28;;;;;;;;;;;24.90;51.10;;;;;;4880925;29;19916;-73
2022/08/08 03:21:54;;;;;;;;;;;24.90;51.20;;;;;;4879576;29;20360;-70
2022/08/08 03:24:19;;;;;;;;;;;24.90;51.30;;;;;;4880589;29;19927;-71
2022/08/08 03:26:50;;;;;;;;;;;24.90;51.30;;;;;;4870937;29;20341;-69
2022/08/08 03:29:18;;;;;;;;;;;24.90;51.30;;;;;;4880268;29;20432;-70
2022/08/08 03:34:30;;;;;;;;;;;24.80;51.40;;;;;;4880503;29;19938;-72
2022/08/08 03:36:56;;;;;;;;;;;24.80;51.60;;;;;;4880549;29;20379;-70
2022/08/08 03:39:22;;;;;;;;;;;24.80;51.60;;;;;;4880506;29;19911;-72
2022/08/08 03:41:47;;;;;;;;;;;24.80;51.50;;;;;;4880129;29;20288;-70
2022/08/08 03:44:13;;;;;;;;;;;24.80;51.30;;;;;;4880245;29;20048;-70
2022/08/08 03:46:42;;;;;;;;;;;24.80;51.40;;;;;;4880327;29;19919;-72
2022/08/08 03:49:15;;;;;;;;;;;24.80;51.30;;;;;;4880362;29;19986;-71
2022/08/08 03:51:40;;;;;;;;;;;24.80;51.50;;;;;;4880104;29;19963;-72
2022/08/08 03:54:07;;;;;;;;;;;24.80;51.40;;;;;;4880309;29;19991;-71
2022/08/08 03:56:33;;;;;;;;;;;24.80;51.20;;;;;;4880187;29;19918;-73
2022/08/08 03:58:58;;;;;;;;;;;24.80;51.30;;;;;;4863533;29;19912;-71
2022/08/08 04:01:33;;;;;;;;;;;24.70;51.40;;;;;;4880072;29;19998;-70
2022/08/08 04:03:58;;;;;;;;;;;24.70;51.40;;;;;;4880063;29;19911;-71
2022/08/08 04:06:24;;;;;;;;;;;24.70;51.60;;;;;;4880036;29;20427;-71
2022/08/08 04:08:49;;;;;;;;;;;24.60;51.70;;;;;;4879813;29;19944;-72
2022/08/08 04:11:15;;;;;;;;;;;24.60;51.80;;;;;;4879921;29;19920;-70
2022/08/08 04:13:41;;;;;;;;;;;24.60;51.70;;;;;;4879911;29;19962;-72
2022/08/08 04:16:06;;;;;;;;;;;24.50;52.10;;;;;;4878494;29;19912;-70
2022/08/08 04:18:32;;;;;;;;;;;24.50;51.90;;;;;;4879962;29;19911;-70
2022/08/08 04:20:58;;;;;;;;;;;24.50;51.90;;;;;;4879757;29;19916;-71
2022/08/08 04:23:23;;;;;;;;;;;24.60;52.10;;;;;;4879597;29;20384;-70
2022/08/08 04:25:49;;;;;;;;;;;24.60;52.00;;;;;;4879583;29;19912;-69
2022/08/08 04:28:14;;;;;;;;;;;24.60;52.00;;;;;;4870248;29;19951;-71
2022/08/08 04:30:40;;;;;;;;;;;24.60;52.00;;;;;;4879564;29;20330;-69
2022/08/08 04:33:05;;;;;;;;;;;24.60;51.80;;;;;;4879416;29;19916;-72
2022/08/08 04:35:31;;;;;;;;;;;24.60;51.80;;;;;;4879531;29;20013;-70
2022/08/08 04:37:57;;;;;;;;;;;24.60;52.00;;;;;;4879452;29;20284;-72
2022/08/08 04:40:22;;;;;;;;;;;24.60;52.00;;;;;;4879509;29;19919;-71
2022/08/08 04:42:50;;;;;;;;;;;24.60;52.20;;;;;;4877857;29;19995;-71
2022/08/08 04:45:15;;;;;;;;;;;24.50;52.20;;;;;;4878448;29;19923;-71
2022/08/08 04:47:41;;;;;;;;;;;24.50;52.30;;;;;;4879749;29;19916;-72
2022/08/08 04:50:07;;;;;;;;;;;24.50;52.40;;;;;;4879238;29;20283;-71
2022/08/08 04:52:33;;;;;;;;;;;24.50;52.30;;;;;;4878938;29;19924;-70
2022/08/08 04:54:58;;;;;;;;;;;24.50;52.30;;;;;;4879086;29;19919;-71
2022/08/08 04:57:24;;;;;;;;;;;24.60;52.20;;;;;;4868696;29;19916;-70
2022/08/08 04:59:49;;;;;;;;;;;24.60;52.30;;;;;;4879013;29;19916;-74
2022/08/08 05:02:15;;;;;;;;;;;24.60;52.40;;;;;;4878826;29;20055;-69
2022/08/08 05:04:41;;;;;;;;;;;24.60;52.20;;;;;;4879143;29;20388;-71
2022/08/08 05:07:07;;;;;;;;;;;24.60;52.20;;;;;;4878957;29;19919;-70
2022/08/08 05:09:33;;;;;;;;;;;24.70;52.20;;;;;;4879255;29;19916;-71
2022/08/08 05:11:59;;;;;;;;;;;24.60;52.30;;;;;;4878892;29;20421;-70
2022/08/08 05:14:25;;;;;;;;;;;24.60;52.20;;;;;;4878984;29;20368;-71
2022/08/08 05:16:50;;;;;;;;;;;24.70;52.20;;;;;;4877785;29;19912;-71
2022/08/08 05:19:16;;;;;;;;;;;24.80;52.20;;;;;;4879336;29;20369;-73
2022/08/08 05:21:42;;;;;;;;;;;24.70;52.40;;;;;;4877686;29;19916;-71
2022/08/08 05:24:08;;;;;;;;;;;24.70;52.30;;;;;;4878877;29;19916;-74
2022/08/08 05:26:34;;;;;;;;;;;24.70;52.40;;;;;;4878880;29;20520;-74
2022/08/08 05:29:02;;;;;;;;;;;24.80;52.40;;;;;;4860856;29;19912;-75
2022/08/08 05:31:29;;;;;;;;;;;24.80;52.20;;;;;;4878602;29;19950;-73
2022/08/08 05:33:54;;;;;;;;;;;24.80;52.50;;;;;;4878964;29;19941;-75
2022/08/08 05:36:22;;;;;;;;;;;24.90;52.30;;;;;;4878600;29;19920;-74
2022/08/08 05:38:49;;;;;;;;;;;24.80;52.20;;;;;;4878780;29;20361;-72
2022/08/08 05:41:18;;;;;;;;;;;24.90;52.30;;;;;;4878691;29;19911;-74
2022/08/08 05:43:46;;;;;;;;;;;24.90;52.10;;;;;;4878650;29;19915;-72
2022/08/08 05:46:12;;;;;;;;;;;24.90;52.30;;;;;;4878595;29;19940;-71
2022/08/08 05:48:38;;;;;;;;;;;24.90;52.40;;;;;;4878486;29;20014;-71
2022/08/08 05:51:04;;;;;;;;;;;24.90;52.50;;;;;;4878308;29;20014;-70
2022/08/08 05:53:29;;;;;;;;;;;25.00;52.40;;;;;;4878360;29;19912;-73
2022/08/08 05:55:56;;;;;;;;;;;24.90;52.30;;;;;;4878450;29;19912;-74
2022/08/08 05:58:29;;;;;;;;;;;25.00;52.40;;;;;;4865931;29;19912;-73
2022/08/08 06:00:56;;;;;;;;;;;25.10;52.20;;;;;;4878373;29;19948;-74
2022/08/08 06:03:22;;;;;;;;;;;25.10;51.90;;;;;;4878547;29;19916;-75
2022/08/08 06:05:49;;;;;;;;;;;25.10;52.00;;;;;;4878226;29;19916;-73
2022/08/08 06:08:16;;;;;;;;;;;25.20;52.00;;;;;;4878554;29;20396;-71
2022/08/08 06:10:42;;;;;;;;;;;25.20;51.80;;;;;;4878359;29;19926;-73
2022/08/08 06:13:08;;;;;;;;;;;25.40;51.70;;;;;;4878082;29;19912;-74
2022/08/08 06:15:34;;;;;;;;;;;25.40;51.50;;;;;;4878250;29;20019;-75
2022/08/08 06:18:00;;;;;;;;;;;25.70;51.70;;;;;;4878373;29;19923;-76
2022/08/08 06:20:26;;;;;;;;;;;26.00;50.60;;;;;;4878247;29;20354;-74
2022/08/08 06:22:52;;;;;;;;;;;26.30;49.60;;;;;;4878018;29;19959;-70
2022/08/08 06:25:17;;;;;;;;;;;26.40;49.30;;;;;;4878261;29;19926;-70
2022/08/08 06:27:54;;;;;;;;;;;26.40;49.30;;;;;;4867549;29;20264;-67
2022/08/08 06:30:19;;;;;;;;;;;26.40;49.40;;;;;;4877932;29;20355;-70
2022/08/08 06:32:51;;;;;;;;;;;26.30;49.60;;;;;;4877909;29;19970;-70
2022/08/08 06:35:17;;;;;;;;;;;26.20;50.50;;;;;;4878061;29;19915;-68
2022/08/08 06:37:47;;;;;;;;;;;26.20;49.80;;;;;;4876439;29;19911;-69
2022/08/08 06:40:14;;;;;;;;;;;26.30;49.70;;;;;;4878084;29;19915;-69
2022/08/08 06:42:40;;;;;;;;;;;26.40;49.50;;;;;;4876691;29;20452;-65
2022/08/08 06:45:06;;;;;;;;;;;26.50;49.60;;;;;;4877834;29;20398;-65
2022/08/08 06:47:33;;;;;;;;;;;26.60;49.30;;;;;;4877879;29;19912;-68
2022/08/08 06:49:59;;;;;;;;;;;26.70;48.90;;;;;;4877557;29;19924;-66
2022/08/08 06:52:25;;;;;;;;;;;26.90;48.40;;;;;;4877666;29;20257;-66
2022/08/08 06:54:51;;;;;;;;;;;27.10;48.50;;;;;;4877766;29;19919;-69
2022/08/08 06:57:16;;;;;;;;;;;27.30;48.00;;;;;;4861871;29;19912;-69
2022/08/08 06:59:42;;;;;;;;;;;27.40;47.50;;;;;;4877647;29;20047;-69
2022/08/08 07:02:12;;;;;;;;;;;27.60;47.20;;;;;;4876366;29;19912;-71
2022/08/08 07:04:54;;;;;;;;;;;27.80;46.90;;;;;;4878775;29;19919;-69
2022/08/08 07:07:32;;;;;;;;;;;27.90;46.50;;;;;;4881092;29;20300;-68
2022/08/08 07:10:02;;;;;;;;;;;28.00;46.30;;;;;;4881053;29;19920;-69
2022/08/08 07:12:37;;;;;;;;;;;28.20;46.10;;;;;;4881247;29;20372;-73
2022/08/08 07:15:04;;;;;;;;;;;28.20;45.90;;;;;;4881350;29;19912;-70
2022/08/08 07:17:35;;;;;;;;;;;28.10;46.10;;;;;;4881049;29;20360;-68
2022/08/08 07:20:02;;;;;;;;;;;28.10;46.20;;;;;;4881126;29;20006;-70
2022/08/08 07:22:47;;;;;;;;;;;28.20;46.00;;;;;;4880872;29;19966;-69
2022/08/08 07:25:14;;;;;;;;;;;28.20;46.10;;;;;;4881073;29;20423;-70
2022/08/08 07:27:44;;;;;;;;;;;28.30;45.90;;;;;;4864114;29;20014;-68
2022/08/08 07:30:10;;;;;;;;;;;28.50;45.70;;;;;;4880942;29;19963;-71
2022/08/08 07:32:37;;;;;;;;;;;28.60;45.30;;;;;;4881031;29;20284;-72
2022/08/08 07:35:06;;;;;;;;;;;28.50;45.40;;;;;;4881309;29;20296;-73
2022/08/08 07:37:32;;;;;;;;;;;28.30;45.90;;;;;;4881303;29;19919;-73
2022/08/08 07:40:00;;;;;;;;;;;28.10;46.30;;;;;;4876334;29;19998;-70
2022/08/08 07:42:25;;;;;;;;;;;28.20;46.20;;;;;;4872233;29;20453;-73
2022/08/08 07:44:51;;;;;;;;;;;28.10;46.20;;;;;;4880367;29;20006;-72
2022/08/08 07:47:16;;;;;;;;;;;28.10;46.10;;;;;;4880558;29;20044;-69
2022/08/08 07:49:42;;;;;;;;;;;28.10;46.70;;;;;;4880503;29;19952;-73
2022/08/08 07:52:09;;;;;;;;;;;28.10;46.60;;;;;;4880524;29;20386;-73
2022/08/08 07:54:43;;;;;;;;;;;28.30;46.60;;;;;;4880467;29;19916;-66
2022/08/08 07:57:12;;;;;;;;;;;28.40;46.00;;;;;;4868653;29;19915;-71
2022/08/08 07:59:43;;;;;;;;;;;28.30;46.20;;;;;;4880503;29;19912;-70
2022/08/08 08:02:13;;;;;;;;;;;28.50;46.00;;;;;;4879255;29;20103;-73
2022/08/08 08:04:42;;;;;;;;;;;28.40;45.70;;;;;;4879709;29;20023;-74
2022/08/08 08:07:09;;;;;;;;;;;28.40;45.90;;;;;;4879979;29;19964;-77
2022/08/08 08:09:36;;;;;;;;;;;28.60;46.10;;;;;;4880250;29;19912;-75
2022/08/08 08:12:02;;;;;;;;;;;28.40;46.00;;;;;;4880464;29;19912;-74
2022/08/08 08:14:29;;;;;;;;;;;28.60;45.90;;;;;;4880017;29;19946;-73
2022/08/08 08:16:55;;;;;;;;;;;28.60;45.80;;;;;;4878962;29;19912;-74
2022/08/08 08:19:25;;;;;;;;;;;28.50;45.70;;;;;;4879951;29;19960;-76
2022/08/08 08:21:51;;;;;;;;;;;28.50;46.40;;;;;;4879977;29;20305;-75
2022/08/08 08:24:16;;;;;;;;;;;28.70;46.50;;;;;;4880029;29;19995;-75
2022/08/08 08:26:42;;;;;;;;;;;28.80;45.60;;;;;;4878349;29;19912;-66
2022/08/08 08:29:08;;;;;;;;;;;28.90;45.90;;;;;;4871851;29;19991;-69
2022/08/08 08:31:34;;;;;;;;;;;29.10;45.40;;;;;;4884458;29;19920;-75
2022/08/08 08:33:59;;;;;;;;;;;29.00;45.10;;;;;;4885376;29;19912;-64
2022/08/08 08:36:25;;;;;;;;;;;28.70;46.10;;;;;;4882365;29;19963;-67
2022/08/08 08:38:51;;;;;;;;;;;28.80;45.50;;;;;;4884511;29;19994;-73
2022/08/08 08:41:20;;;;;;;;;;;29.10;45.50;;;;;;4885311;29;19943;-67
2022/08/08 08:43:47;;;;;;;;;;;29.30;45.10;;;;;;4881960;29;19931;-65
2022/08/08 08:46:13;;;;;;;;;;;29.50;44.90;;;;;;4879559;29;19916;-66
2022/08/08 08:48:42;;;;;;;;;;;29.60;44.60;;;;;;4879325;29;20277;-66
2022/08/08 08:51:12;;;;;;;;;;;29.70;44.00;;;;;;4879033;29;19924;-68
2022/08/08 08:53:42;;;;;;;;;;;29.70;43.90;;;;;;4879417;29;20288;-67
2022/08/08 08:56:10;;;;;;;;;;;29.90;43.90;;;;;;4879309;29;20363;-70
2022/08/08 08:58:41;;;;;;;;;;;29.80;43.50;;;;;;4868961;29;19916;-65
2022/08/08 09:01:08;;;;;;;;;;;29.80;43.70;;;;;;4880065;29;19916;-65
2022/08/08 09:03:34;;;;;;;;;;;29.80;43.80;;;;;;4881762;29;19916;-66
2022/08/08 09:06:00;;;;;;;;;;;29.60;44.00;;;;;;4879327;29;19980;-66
2022/08/08 09:08:27;;;;;;;;;;;29.50;44.00;;;;;;4879240;29;20006;-66
2022/08/08 09:10:53;;;;;;;;;;;29.40;44.00;;;;;;4878937;29;19976;-65
2022/08/08 09:13:20;;;;;;;;;;;29.40;44.30;;;;;;4879157;29;19916;-62
2022/08/08 09:15:45;;;;;;;;;;;29.30;44.60;;;;;;4878855;29;19960;-64
2022/08/08 09:18:11;;;;;;;;;;;29.20;44.90;;;;;;4879173;29;20326;-64
2022/08/08 09:20:37;;;;;;;;;;;29.10;45.20;;;;;;4879097;29;19916;-65
2022/08/08 09:23:03;;;;;;;;;;;29.30;45.30;;;;;;4878836;29;19915;-66
2022/08/08 09:25:28;;;;;;;;;;;29.30;45.10;;;;;;4878770;29;19911;-64
2022/08/08 09:27:56;;;;;;;;;;;29.40;45.20;;;;;;4869840;29;20391;-68
2022/08/08 09:30:23;;;;;;;;;;;29.60;44.40;;;;;;4879089;29;19924;-66
2022/08/08 09:32:49;;;;;;;;;;;29.40;44.40;;;;;;4878753;29;19916;-70
2022/08/08 09:35:19;;;;;;;;;;;29.40;44.70;;;;;;4878859;29;19916;-67
2022/08/08 09:37:48;;;;;;;;;;;29.20;45.20;;;;;;4877642;29;20379;-69
2022/08/08 09:40:14;;;;;;;;;;;29.40;45.00;;;;;;4878599;29;19916;-68
2022/08/08 09:42:42;;;;;;;;;;;29.50;44.40;;;;;;4878563;29;19959;-70
2022/08/08 09:45:09;;;;;;;;;;;29.40;44.90;;;;;;4878491;29;19919;-65
2022/08/08 09:47:36;;;;;;;;;;;29.40;44.80;;;;;;4878565;29;19951;-67
2022/08/08 09:50:04;;;;;;;;;;;29.50;44.60;;;;;;4878485;29;19924;-65
2022/08/08 09:52:31;;;;;;;;;;;29.50;44.30;;;;;;4878188;29;19924;-65
2022/08/08 09:54:57;;;;;;;;;;;29.40;44.80;;;;;;4877123;29;19920;-66
2022/08/08 09:57:36;;;;;;;;;;;29.40;44.90;;;;;;4864019;29;20392;-64
2022/08/08 10:00:09;;;;;;;;;;;29.50;44.90;;;;;;4878671;29;20410;-66
2022/08/08 10:02:36;;;;;;;;;;;29.40;44.50;;;;;;4878201;29;19941;-65
2022/08/08 10:05:06;;;;;;;;;;;29.40;44.60;;;;;;4878592;29;20019;-68
2022/08/08 10:07:31;;;;;;;;;;;29.50;45.10;;;;;;4878379;29;20000;-65
2022/08/08 10:09:57;;;;;;;;;;;29.50;44.90;;;;;;4878197;29;20321;-65
2022/08/08 10:12:31;;;;;;;;;;;29.60;44.70;;;;;;4878327;29;20318;-64
2022/08/08 10:15:00;;;;;;;;;;;29.60;44.90;;;;;;4878378;29;19946;-67
2022/08/08 10:17:26;;;;;;;;;;;29.60;45.00;;;;;;4877979;29;19916;-65
2022/08/08 10:19:55;;;;;;;;;;;29.50;44.90;;;;;;4877951;29;19938;-64
2022/08/08 10:22:21;;;;;;;;;;;29.40;45.20;;;;;;4878029;29;19944;-64
2022/08/08 10:24:47;;;;;;;;;;;29.60;45.60;;;;;;4878105;29;20349;-67
2022/08/08 10:27:13;;;;;;;;;;;29.70;45.10;;;;;;4858354;29;20316;-63
2022/08/08 10:29:39;;;;;;;;;;;29.60;44.60;;;;;;4878013;29;19912;-65
2022/08/08 10:34:51;;;;;;;;;;;29.70;44.70;;;;;;4878532;29;19990;-64
2022/08/08 10:37:27;;;;;;;;;;;29.70;44.50;;;;;;4878217;29;19968;-64
2022/08/08 10:39:57;;;;;;;;;;;29.60;46.00;;;;;;4879430;29;19916;-64
2022/08/08 10:42:29;;;;;;;;;;;29.90;45.20;;;;;;4881790;29;19916;-64
2022/08/08 10:44:59;;;;;;;;;;;30.00;44.30;;;;;;4881591;29;19912;-64
2022/08/08 10:47:25;;;;;;;;;;;30.00;45.20;;;;;;4881577;29;19950;-65
2022/08/08 10:49:52;;;;;;;;;;;30.00;44.20;;;;;;4881542;29;19971;-64
2022/08/08 10:52:34;;;;;;;;;;;30.10;44.20;;;;;;4881394;29;19988;-64
2022/08/08 10:55:00;;;;;;;;;;;30.00;44.50;;;;;;4881367;29;19912;-65
2022/08/08 10:57:26;;;;;;;;;;;30.10;44.50;;;;;;4870637;29;19916;-63
2022/08/08 10:59:55;;;;;;;;;;;30.20;44.70;;;;;;4881436;29;19918;-64
2022/08/08 11:02:31;;;;;;;;;;;30.20;43.90;;;;;;4881201;29;19916;-64
2022/08/08 11:04:57;;;;;;;;;;;30.30;44.10;;;;;;4881287;29;19968;-68
2022/08/08 11:07:23;;;;;;;;;;;30.30;43.90;;;;;;4881150;29;19916;-66
2022/08/08 11:09:49;;;;;;;;;;;30.30;43.60;;;;;;4881078;29;20063;-64
2022/08/08 11:12:14;;;;;;;;;;;30.20;43.60;;;;;;4880543;29;20011;-62
2022/08/08 11:14:50;;;;;;;;;;;30.30;43.50;;;;;;4880773;29;19911;-69
2022/08/08 11:17:20;;;;;;;;;;;30.40;43.50;;;;;;4878509;29;19923;-68
2022/08/08 11:19:45;;;;;;;;;;;30.50;43.50;;;;;;4878252;29;20006;-72
2022/08/08 11:22:13;;;;;;;;;;;30.60;43.70;;;;;;4879306;29;20011;-70
2022/08/08 11:24:39;;;;;;;;;;;30.70;43.20;;;;;;4878806;29;19912;-65
2022/08/08 11:27:06;;;;;;;;;;;30.90;43.80;;;;;;4866484;29;19971;-64
2022/08/08 11:29:34;;;;;;;;;;;31.00;43.10;;;;;;4876136;29;19945;-69
2022/08/08 11:32:02;;;;;;;;;;;31.00;43.20;;;;;;4879897;29;19915;-69
2022/08/08 11:34:31;;;;;;;;;;;31.00;42.70;;;;;;4879691;29;19912;-68
2022/08/08 11:36:57;;;;;;;;;;;31.10;42.70;;;;;;4879951;29;20435;-73
2022/08/08 11:39:22;;;;;;;;;;;31.20;43.10;;;;;;4867098;29;19911;-73
2022/08/08 11:41:49;;;;;;;;;;;31.30;42.80;;;;;;4879845;29;19916;-73
2022/08/08 11:44:15;;;;;;;;;;;31.10;42.20;;;;;;4879881;29;19911;-70
2022/08/08 11:46:41;;;;;;;;;;;31.20;42.80;;;;;;4879680;29;19916;-68
2022/08/08 11:49:07;;;;;;;;;;;31.00;42.30;;;;;;4866622;29;19923;-71
2022/08/08 11:51:33;;;;;;;;;;;31.00;44.40;;;;;;4879108;29;19927;-65
2022/08/08 11:53:59;;;;;;;;;;;31.00;42.80;;;;;;4879944;29;19912;-68
2022/08/08 11:56:24;;;;;;;;;;;31.10;42.50;;;;;;4863602;29;19912;-70
2022/08/08 11:58:50;;;;;;;;;;;31.00;42.70;;;;;;4868624;29;19922;-66
2022/08/08 12:01:16;;;;;;;;;;;31.00;41.90;;;;;;4871978;29;20300;-70
2022/08/08 12:03:46;;;;;;;;;;;31.10;42.50;;;;;;4865317;29;20348;-72
2022/08/08 12:06:12;;;;;;;;;;;31.30;42.30;;;;;;4869029;29;19911;-77
2022/08/08 12:08:40;;;;;;;;;;;31.30;41.80;;;;;;4865387;29;19912;-77
2022/08/08 12:11:19;;;;;;;;;;;31.10;42.60;;;;;;4869295;29;19931;-70
2022/08/08 12:13:48;;;;;;;;;;;31.10;42.20;;;;;;4864983;29;19912;-72
2022/08/08 12:16:16;;;;;;;;;;;31.00;42.50;;;;;;4876706;29;19930;-69
2022/08/08 12:18:43;;;;;;;;;;;31.00;42.20;;;;;;4874262;29;19919;-67
2022/08/08 12:21:18;;;;;;;;;;;31.10;42.50;;;;;;4878471;29;19916;-69
2022/08/08 12:23:43;;;;;;;;;;;31.20;42.40;;;;;;4876024;29;19915;-66
2022/08/08 12:26:10;;;;;;;;;;;31.20;41.70;;;;;;4876770;29;19916;-64
2022/08/08 12:28:36;;;;;;;;;;;31.20;42.30;;;;;;4865464;29;19916;-68
2022/08/08 12:31:05;;;;;;;;;;;31.20;42.20;;;;;;4876866;29;19963;-66
2022/08/08 12:33:31;;;;;;;;;;;31.30;42.10;;;;;;4877733;29;19918;-71
2022/08/08 12:35:56;;;;;;;;;;;31.40;42.40;;;;;;4871653;29;20292;-66
2022/08/08 12:38:22;;;;;;;;;;;31.40;41.50;;;;;;4873504;29;20002;-65
2022/08/08 12:40:48;;;;;;;;;;;31.30;42.50;;;;;;4873351;29;20313;-63
2022/08/08 12:43:15;;;;;;;;;;;31.40;41.50;;;;;;4871585;29;19926;-65
2022/08/08 12:45:41;;;;;;;;;;;31.50;42.00;;;;;;4878256;29;19964;-70
2022/08/08 12:48:18;;;;;;;;;;;31.50;40.80;;;;;;4878845;29;19915;-70
2022/08/08 12:50:44;;;;;;;;;;;31.00;42.10;;;;;;4871163;29;20381;-71
2022/08/08 12:53:20;;;;;;;;;;;31.10;42.10;;;;;;4868581;29;19928;-68
2022/08/08 12:55:53;;;;;;;;;;;31.30;42.30;;;;;;4868631;29;20017;-69
2022/08/08 12:58:18;;;;;;;;;;;31.40;41.40;;;;;;4872022;29;20337;-67
2022/08/08 13:00:44;;;;;;;;;;;31.60;41.90;;;;;;4878029;29;19920;-67
2022/08/08 13:03:21;;;;;;;;;;;31.30;41.30;;;;;;4875440;29;20295;-70
2022/08/08 13:05:46;;;;;;;;;;;31.40;41.00;;;;;;4879805;29;19916;-78
2022/08/08 13:08:16;;;;;;;;;;;31.60;41.70;;;;;;4878562;29;20010;-69
2022/08/08 13:10:48;;;;;;;;;;;31.70;41.40;;;;;;4874473;29;19920;-71
2022/08/08 13:13:25;;;;;;;;;;;31.50;40.60;;;;;;4878220;29;19912;-65
2022/08/08 13:15:51;;;;;;;;;;;31.30;41.20;;;;;;4875972;29;19922;-66
2022/08/08 13:18:17;;;;;;;;;;;31.40;41.50;;;;;;4878067;29;19987;-67
2022/08/08 13:20:44;;;;;;;;;;;31.50;40.80;;;;;;4877923;29;19912;-64
2022/08/08 13:23:14;;;;;;;;;;;31.60;40.80;;;;;;4878146;29;19916;-74
2022/08/08 13:25:40;;;;;;;;;;;31.70;41.10;;;;;;4878788;29;20266;-76
2022/08/08 13:28:05;;;;;;;;;;;31.80;40.60;;;;;;4871623;29;19944;-69
2022/08/08 13:30:31;;;;;;;;;;;31.90;40.40;;;;;;4878603;29;19928;-70
2022/08/08 13:32:58;;;;;;;;;;;32.00;40.70;;;;;;4878124;29;19920;-67
2022/08/08 13:35:24;;;;;;;;;;;32.10;40.10;;;;;;4877763;29;20281;-68
2022/08/08 13:37:50;;;;;;;;;;;32.10;40.70;;;;;;4877529;29;19962;-66
2022/08/08 13:40:18;;;;;;;;;;;32.00;39.80;;;;;;4877639;29;19936;-70
2022/08/08 13:42:44;;;;;;;;;;;32.00;40.70;;;;;;4877476;29;19919;-62
2022/08/08 13:45:11;;;;;;;;;;;32.10;39.90;;;;;;4877598;29;19912;-68
2022/08/08 13:47:39;;;;;;;;;;;32.00;40.00;;;;;;4877718;29;20047;-68
2022/08/08 13:50:06;;;;;;;;;;;31.80;39.30;;;;;;4877445;29;19920;-65
2022/08/08 13:52:31;;;;;;;;;;;31.80;39.80;;;;;;4877337;29;19931;-65
2022/08/08 13:54:58;;;;;;;;;;;31.70;41.90;;;;;;4877349;29;19919;-66
2022/08/08 13:57:27;;;;;;;;;;;31.80;40.60;;;;;;4869138;29;19916;-68
2022/08/08 14:00:03;;;;;;;;;;;31.90;40.70;;;;;;4877251;29;19966;-68
2022/08/08 14:02:28;;;;;;;;;;;31.70;39.80;;;;;;4877224;29;19912;-67
2022/08/08 14:04:58;;;;;;;;;;;31.70;40.10;;;;;;4875140;29;19923;-63
2022/08/08 14:07:25;;;;;;;;;;;31.80;40.90;;;;;;4876707;29;19912;-65
2022/08/08 14:09:50;;;;;;;;;;;31.80;40.30;;;;;;4876708;29;19920;-67
2022/08/08 14:12:16;;;;;;;;;;;31.80;40.40;;;;;;4876778;29;19939;-66
2022/08/08 14:14:43;;;;;;;;;;;31.80;40.20;;;;;;4878041;29;19920;-65
2022/08/08 14:17:10;;;;;;;;;;;31.90;40.30;;;;;;4880684;29;19916;-64
2022/08/08 14:19:40;;;;;;;;;;;31.90;40.20;;;;;;4881021;29;19916;-70
2022/08/08 14:22:31;;;;;;;;;;;31.80;39.40;;;;;;4880970;29;19911;-68
2022/08/08 14:24:58;;;;;;;;;;;31.70;40.10;;;;;;4881264;29;19912;-69
2022/08/08 14:27:25;;;;;;;;;;;31.70;40.70;;;;;;4871692;29;19916;-69
2022/08/08 14:29:55;;;;;;;;;;;31.70;40.90;;;;;;4881880;29;20364;-68
2022/08/08 14:32:20;;;;;;;;;;;31.60;40.40;;;;;;4880142;29;20360;-67
2022/08/08 14:34:53;;;;;;;;;;;31.70;40.20;;;;;;4879826;29;19959;-67